Time;durP1;ratioP1;P1;durP2;ratioP2;P2;SDS_P1;SDS_P2;PMS_P1;PMS_P2;Temp;Humidity;BMP_temperature;BMP_pressure;BME280_temperature;BME280_humidity;BME280_pressure;Samples;Min_cycle;Max_cycle;Signal;HPM_P1;HPM_P2
2022/03/19 00:00:58;;;;;;;10.82;2.30;;;4.60;99.90;;;;;;5157372;27;20047;-77
2022/03/19 00:03:25;;;;;;;16.67;2.80;;;4.60;99.90;;;;;;5157182;27;20041;-76
2022/03/19 00:05:51;;;;;;;11.02;2.60;;;4.60;99.90;;;;;;5156971;27;20043;-75
2022/03/19 00:08:17;;;;;;;17.38;2.72;;;4.50;99.90;;;;;;5156925;27;20045;-75
2022/03/19 00:10:43;;;;;;;11.15;2.45;;;4.50;99.90;;;;;;5156962;27;20050;-74
2022/03/19 00:13:12;;;;;;;11.35;3.08;;;4.50;99.90;;;;;;5157178;27;20115;-76
2022/03/19 00:15:38;;;;;;;10.75;3.15;;;4.50;99.90;;;;;;5157118;27;20034;-76
2022/03/19 00:18:04;;;;;;;12.03;2.73;;;4.40;99.90;;;;;;5156622;27;20082;-75
2022/03/19 00:20:31;;;;;;;11.65;2.58;;;4.30;99.90;;;;;;5156339;27;20091;-76
2022/03/19 00:22:57;;;;;;;12.55;3.08;;;4.30;99.90;;;;;;5156510;27;20118;-74
2022/03/19 00:25:23;;;;;;;13.80;3.13;;;4.40;99.90;;;;;;5157011;27;20089;-74
2022/03/19 00:27:49;;;;;;;11.23;2.92;;;4.30;99.90;;;;;;5156542;27;20558;-76
2022/03/19 00:30:14;;;;;;;8.18;2.33;;;4.30;99.90;;;;;;5156401;27;20070;-75
2022/03/19 00:32:40;;;;;;;12.77;3.22;;;4.30;99.90;;;;;;5156236;27;20039;-75
2022/03/19 00:35:07;;;;;;;8.60;3.08;;;4.30;99.90;;;;;;5137918;27;20569;-76
2022/03/19 00:37:46;;;;;;;;;;;4.20;99.90;;;;;;5156726;27;20042;-75
2022/03/19 00:40:13;;;;;;;;;;;4.20;99.90;;;;;;5156702;27;20021;-76
2022/03/19 00:42:38;;;;;;;13.85;2.88;;;4.20;99.90;;;;;;5156249;27;19988;-75
2022/03/19 00:45:04;;;;;;;13.43;2.95;;;4.20;99.90;;;;;;5156187;27;20052;-74
2022/03/19 00:47:30;;;;;;;10.07;2.90;;;4.20;99.90;;;;;;5156023;27;20050;-75
2022/03/19 00:49:55;;;;;;;10.73;2.90;;;4.20;99.90;;;;;;5156037;27;20043;-75
2022/03/19 00:52:21;;;;;;;8.68;2.83;;;4.20;99.90;;;;;;5155894;27;20091;-75
2022/03/19 00:54:46;;;;;;;13.50;2.88;;;4.20;99.90;;;;;;5156071;27;20093;-75
2022/03/19 00:57:12;;;;;;;8.07;2.72;;;4.20;99.90;;;;;;5155948;27;20042;-75
2022/03/19 00:59:37;;;;;;;11.93;3.08;;;4.20;99.90;;;;;;5155901;27;20431;-76
2022/03/19 01:02:03;;;;;;;14.38;3.35;;;4.20;99.90;;;;;;5155735;27;20065;-75
2022/03/19 01:04:29;;;;;;;13.32;4.13;;;4.20;99.90;;;;;;5155781;27;20405;-76
2022/03/19 01:06:54;;;;;;;14.18;3.47;;;4.20;99.90;;;;;;5155658;27;20164;-75
2022/03/19 01:09:20;;;;;;;13.15;3.50;;;4.20;99.90;;;;;;5155826;27;20521;-75
2022/03/19 01:11:45;;;;;;;13.38;3.55;;;4.20;99.90;;;;;;5155958;27;20071;-76
2022/03/19 01:14:11;;;;;;;10.32;2.97;;;4.20;99.90;;;;;;5156002;27;20113;-75
2022/03/19 01:16:37;;;;;;;15.13;3.20;;;4.20;99.90;;;;;;5155448;27;20049;-74
2022/03/19 01:19:02;;;;;;;11.55;3.67;;;4.20;99.90;;;;;;5155612;27;20042;-75
2022/03/19 01:21:28;;;;;;;13.27;3.22;;;4.30;99.90;;;;;;5155503;27;20454;-75
2022/03/19 01:23:53;;;;;;;14.70;3.13;;;4.30;99.90;;;;;;5155917;27;20559;-75
2022/03/19 01:26:19;;;;;;;13.18;3.63;;;4.20;99.90;;;;;;5155530;27;20054;-77
2022/03/19 01:28:45;;;;;;;11.43;3.13;;;4.20;99.90;;;;;;5155751;27;20039;-76
2022/03/19 01:31:11;;;;;;;11.65;3.42;;;4.20;99.90;;;;;;5154819;27;20039;-76
2022/03/19 01:33:37;;;;;;;10.82;2.80;;;4.30;99.90;;;;;;5155265;27;20082;-75
2022/03/19 01:36:02;;;;;;;16.70;3.78;;;4.20;99.90;;;;;;5155393;27;20513;-74
2022/03/19 01:38:28;;;;;;;16.85;3.28;;;4.30;99.90;;;;;;5155335;27;20463;-75
2022/03/19 01:40:53;;;;;;;17.85;4.00;;;4.20;99.90;;;;;;5155332;27;20095;-75
2022/03/19 01:43:19;;;;;;;12.05;3.40;;;4.20;99.90;;;;;;5155251;27;20389;-76
2022/03/19 01:45:44;;;;;;;13.80;3.13;;;4.20;99.90;;;;;;5155347;27;20046;-77
2022/03/19 01:48:10;;;;;;;15.23;3.45;;;4.20;99.90;;;;;;5155273;27;20089;-76
2022/03/19 01:50:36;;;;;;;11.68;3.13;;;4.10;99.90;;;;;;5154983;27;20074;-76
2022/03/19 01:53:02;;;;;;;17.55;3.75;;;4.10;99.90;;;;;;5155207;27;20471;-77
2022/03/19 01:55:28;;;;;;;14.60;4.47;;;4.10;99.90;;;;;;5154909;27;20506;-75
2022/03/19 01:57:55;;;;;;;10.03;3.40;;;4.00;99.90;;;;;;5155234;27;20042;-75
2022/03/19 02:00:23;;;;;;;16.30;3.72;;;4.00;99.90;;;;;;5155184;27;20276;-76
2022/03/19 02:02:51;;;;;;;11.60;3.60;;;4.00;99.90;;;;;;5155143;27;20039;-77
2022/03/19 02:05:19;;;;;;;9.10;3.58;;;4.00;99.90;;;;;;5155126;27;20043;-75
2022/03/19 02:07:46;;;;;;;12.25;3.67;;;4.00;99.90;;;;;;5136888;27;20042;-75
2022/03/19 02:10:16;;;;;;;15.52;4.25;;;4.10;99.90;;;;;;5154847;27;20055;-77
2022/03/19 02:12:44;;;;;;;14.43;3.70;;;4.10;99.90;;;;;;5154865;27;20474;-76
2022/03/19 02:15:11;;;;;;;13.25;4.35;;;4.00;99.90;;;;;;5155290;27;20112;-77
2022/03/19 02:17:37;;;;;;;13.38;4.25;;;4.00;99.90;;;;;;5155114;27;20050;-76
2022/03/19 02:20:04;;;;;;;12.35;4.28;;;4.00;99.90;;;;;;5154947;27;20541;-76
2022/03/19 02:22:30;;;;;;;10.50;3.70;;;4.00;99.90;;;;;;5154807;27;20042;-75
2022/03/19 02:27:42;;;;;;;12.75;4.45;;;4.00;99.90;;;;;;5154793;27;20555;-76
2022/03/19 02:30:10;;;;;;;16.23;4.28;;;4.00;99.90;;;;;;5154656;27;20038;-76
2022/03/19 02:32:36;;;;;;;18.02;4.00;;;3.90;99.90;;;;;;5154767;27;20045;-77
2022/03/19 02:35:02;;;;;;;10.50;3.63;;;3.90;99.90;;;;;;5154887;27;20371;-77
2022/03/19 02:37:44;;;;;;;13.27;4.10;;;4.00;99.90;;;;;;5155179;27;20042;-76
2022/03/19 02:40:13;;;;;;;9.15;3.47;;;3.90;99.90;;;;;;5155532;27;20043;-77
2022/03/19 02:42:39;;;;;;;15.00;3.53;;;3.80;99.90;;;;;;5155405;27;20446;-75
2022/03/19 02:45:06;;;;;;;11.23;4.20;;;3.80;99.90;;;;;;5158489;27;20039;-76
2022/03/19 02:47:56;;;;;;;;;;;3.80;99.90;;;;;;5158919;27;20043;-75
2022/03/19 02:50:20;;;;;;;13.82;3.72;;;3.80;99.90;;;;;;5158198;27;19963;-76
2022/03/19 02:52:45;;;;;;;11.82;3.90;;;3.70;99.90;;;;;;5158335;27;20077;-77
2022/03/19 02:55:11;;;;;;;17.95;4.15;;;3.70;99.90;;;;;;5139782;27;20050;-74
2022/03/19 02:57:36;;;;;;;8.98;3.70;;;3.70;99.90;;;;;;5139710;27;20119;-76
2022/03/19 03:00:02;;;;;;;20.17;4.20;;;3.70;99.90;;;;;;5158835;27;20130;-76
2022/03/19 03:02:28;;;;;;;15.02;4.30;;;3.70;99.90;;;;;;5158353;27;20051;-76
2022/03/19 03:04:53;;;;;;;11.73;3.97;;;3.60;99.90;;;;;;5158361;27;20042;-77
2022/03/19 03:07:19;;;;;;;19.88;4.30;;;3.60;99.90;;;;;;5158120;27;20045;-75
2022/03/19 03:09:45;;;;;;;13.55;5.20;;;3.60;99.90;;;;;;5157923;27;20071;-76
2022/03/19 03:12:10;;;;;;;12.57;4.30;;;3.60;99.90;;;;;;5158077;27;20042;-76
2022/03/19 03:14:36;;;;;;;12.60;5.00;;;3.60;99.90;;;;;;5157896;27;20050;-76
2022/03/19 03:17:02;;;;;;;15.27;4.55;;;3.60;99.90;;;;;;5157928;27;20043;-77
2022/03/19 03:19:27;;;;;;;13.63;4.63;;;3.60;99.90;;;;;;5157896;27;20042;-76
2022/03/19 03:21:53;;;;;;;15.85;4.63;;;3.60;99.90;;;;;;5158052;27;20121;-74
2022/03/19 03:24:18;;;;;;;13.75;3.80;;;3.60;99.90;;;;;;5158011;27;20586;-76
2022/03/19 03:26:44;;;;;;;12.30;4.15;;;3.60;99.90;;;;;;5157652;27;20070;-77
2022/03/19 03:29:10;;;;;;;15.38;3.92;;;3.60;99.90;;;;;;5157744;27;20045;-75
2022/03/19 03:31:37;;;;;;;16.60;3.97;;;3.60;99.90;;;;;;5157357;27;20483;-77
2022/03/19 03:34:03;;;;;;;12.60;4.25;;;3.50;99.90;;;;;;5157617;27;20046;-75
2022/03/19 03:36:29;;;;;;;9.87;4.10;;;3.50;99.90;;;;;;5157601;27;20089;-76
2022/03/19 03:38:54;;;;;;;9.68;3.90;;;3.50;99.90;;;;;;5157330;27;20073;-77
2022/03/19 03:41:20;;;;;;;16.05;4.43;;;3.50;99.90;;;;;;5157570;27;20478;-75
2022/03/19 03:43:46;;;;;;;13.95;4.38;;;3.40;99.90;;;;;;5157437;27;20068;-77
2022/03/19 03:46:12;;;;;;;12.25;4.25;;;3.40;99.90;;;;;;5157446;27;20482;-76
2022/03/19 03:48:38;;;;;;;18.80;4.38;;;3.40;99.90;;;;;;5157441;27;20382;-76
2022/03/19 03:51:06;;;;;;;16.95;4.80;;;3.40;99.90;;;;;;5157333;27;20043;-75
2022/03/19 03:53:33;;;;;;;14.90;3.78;;;3.40;99.90;;;;;;5157241;27;20034;-76
2022/03/19 03:55:59;;;;;;;18.02;4.32;;;3.40;99.90;;;;;;5156535;27;20043;-76
2022/03/19 03:58:24;;;;;;;15.15;4.45;;;3.30;99.90;;;;;;5157681;27;20057;-76
2022/03/19 04:00:53;;;;;;;14.50;4.07;;;3.30;99.90;;;;;;5138995;27;20042;-75
2022/03/19 04:03:20;;;;;;;21.58;4.30;;;3.30;99.90;;;;;;5157038;27;20490;-76
2022/03/19 04:05:46;;;;;;;10.48;4.38;;;3.20;99.90;;;;;;5157085;27;20131;-77
2022/03/19 04:08:11;;;;;;;11.60;4.15;;;3.20;99.90;;;;;;5157077;27;20085;-76
2022/03/19 04:10:37;;;;;;;18.92;4.53;;;3.20;99.90;;;;;;5156799;27;20394;-76
2022/03/19 04:13:03;;;;;;;18.05;5.07;;;3.20;99.90;;;;;;5156810;27;20054;-76
2022/03/19 04:15:29;;;;;;;13.02;4.05;;;3.10;99.90;;;;;;5156745;27;20502;-76
2022/03/19 04:17:54;;;;;;;12.80;4.05;;;3.10;99.90;;;;;;5156871;27;20129;-76
2022/03/19 04:20:21;;;;;;;14.80;4.43;;;3.10;99.90;;;;;;5156997;27;20042;-77
2022/03/19 04:22:47;;;;;;;11.32;4.07;;;3.10;99.90;;;;;;5138663;27;20470;-75
2022/03/19 04:25:18;;;;;;;17.67;5.07;;;3.30;99.90;;;;;;5156628;27;20053;-76
2022/03/19 04:27:46;;;;;;;16.58;4.10;;;3.00;99.90;;;;;;5156686;27;20045;-75
2022/03/19 04:30:13;;;;;;;11.25;4.40;;;3.00;99.90;;;;;;5156525;27;20500;-75
2022/03/19 04:32:54;;;;;;;13.27;4.30;;;3.00;99.90;;;;;;5156735;27;20053;-77
2022/03/19 04:38:08;;;;;;;12.52;4.00;;;2.90;99.90;;;;;;5156378;27;20125;-76
2022/03/19 04:40:35;;;;;;;12.73;4.55;;;2.90;99.90;;;;;;5156773;27;20431;-75
2022/03/19 04:43:01;;;;;;;11.68;4.15;;;2.90;99.90;;;;;;5156282;27;20035;-77
2022/03/19 04:45:26;;;;;;;10.82;4.32;;;2.90;99.90;;;;;;5156278;27;20038;-76
2022/03/19 04:47:52;;;;;;;17.67;4.30;;;2.90;99.90;;;;;;5156278;27;20049;-76
2022/03/19 04:50:18;;;;;;;15.82;4.15;;;2.90;99.90;;;;;;5156041;27;20447;-77
2022/03/19 04:52:44;;;;;;;13.75;4.20;;;2.90;99.90;;;;;;5155971;27;20038;-75
2022/03/19 04:55:11;;;;;;;12.82;3.85;;;3.00;99.90;;;;;;5156066;27;20050;-76
2022/03/19 04:57:37;;;;;;;12.68;4.80;;;3.00;99.90;;;;;;5156102;27;20082;-75
2022/03/19 05:00:05;;;;;;;19.58;4.72;;;3.00;99.90;;;;;;5156179;27;20053;-75
2022/03/19 05:02:31;;;;;;;12.77;4.45;;;3.00;99.90;;;;;;5137452;27;20081;-76
2022/03/19 05:04:57;;;;;;;12.32;4.20;;;3.00;99.90;;;;;;5155974;27;20125;-76
2022/03/19 05:07:25;;;;;;;17.83;4.53;;;3.00;99.90;;;;;;5154835;27;20130;-76
2022/03/19 05:12:39;;;;;;;14.68;3.88;;;3.00;99.90;;;;;;5155620;27;20043;-77
2022/03/19 05:15:06;;;;;;;14.52;4.00;;;3.00;99.90;;;;;;5155713;27;20045;-77
2022/03/19 05:17:31;;;;;;;11.65;3.55;;;3.00;99.90;;;;;;5155635;27;20453;-77
2022/03/19 05:19:57;;;;;;;14.25;4.53;;;3.00;99.90;;;;;;5155687;27;20078;-76
2022/03/19 05:22:23;;;;;;;13.30;3.97;;;2.90;99.90;;;;;;5156065;27;20386;-76
2022/03/19 05:24:48;;;;;;;16.63;4.13;;;2.90;99.90;;;;;;5155390;27;20039;-76
2022/03/19 05:27:14;;;;;;;18.75;5.32;;;2.90;99.90;;;;;;5155694;27;20039;-77
2022/03/19 05:29:40;;;;;;;13.57;3.92;;;2.90;99.90;;;;;;5155511;27;20498;-75
2022/03/19 05:32:06;;;;;;;17.73;3.88;;;2.90;99.90;;;;;;5155987;27;20077;-76
2022/03/19 05:34:33;;;;;;;15.50;4.07;;;3.00;99.90;;;;;;5155007;27;20043;-77
2022/03/19 05:37:00;;;;;;;;;;;3.00;99.90;;;;;;5156317;27;20099;-77
2022/03/19 05:39:30;;;;;;;10.13;3.72;;;3.00;99.90;;;;;;5155383;27;19923;-75
2022/03/19 05:41:55;;;;;;;10.57;3.70;;;3.00;99.90;;;;;;5155320;27;20053;-75
2022/03/19 05:44:21;;;;;;;16.27;4.07;;;3.00;99.90;;;;;;5155489;27;20035;-76
2022/03/19 05:46:47;;;;;;;10.52;3.72;;;3.00;99.90;;;;;;5155622;27;20046;-77
2022/03/19 05:49:13;;;;;;;13.60;4.00;;;3.00;99.90;;;;;;5155306;27;20059;-76
2022/03/19 05:51:39;;;;;;;13.23;3.70;;;3.00;99.90;;;;;;5137394;27;20050;-77
2022/03/19 05:54:04;;;;;;;15.43;3.95;;;3.00;99.90;;;;;;5155563;27;20039;-76
2022/03/19 05:56:30;;;;;;;13.95;3.97;;;3.10;99.90;;;;;;5155259;27;20074;-75
2022/03/19 05:58:56;;;;;;;14.95;4.40;;;3.10;99.90;;;;;;5155123;27;20035;-75
2022/03/19 06:01:26;;;;;;;14.13;3.95;;;4.50;99.90;;;;;;5155336;27;20043;-75
2022/03/19 06:03:56;;;;;;;16.55;3.83;;;3.20;99.90;;;;;;5154915;27;20083;-76
2022/03/19 06:06:22;;;;;;;11.57;4.22;;;3.20;99.90;;;;;;5154899;27;20475;-76
2022/03/19 06:08:48;;;;;;;16.13;4.82;;;3.20;99.90;;;;;;5155119;27;20039;-77
2022/03/19 06:11:13;;;;;;;16.33;4.60;;;3.20;99.90;;;;;;5154686;27;20054;-76
2022/03/19 06:13:39;;;;;;;14.68;4.18;;;3.30;99.90;;;;;;5155164;27;20387;-75
2022/03/19 06:16:05;;;;;;;17.40;4.63;;;3.30;99.90;;;;;;5155071;27;20042;-78
2022/03/19 06:18:31;;;;;;;12.52;4.25;;;3.30;99.90;;;;;;5157127;27;20435;-77
2022/03/19 06:20:57;;;;;;;11.98;3.80;;;3.30;99.90;;;;;;5159522;27;20043;-76
2022/03/19 06:23:23;;;;;;;11.98;4.30;;;3.20;99.90;;;;;;5158984;27;20066;-79
2022/03/19 06:25:49;;;;;;;14.43;4.28;;;3.40;99.90;;;;;;5159026;27;20084;-76
2022/03/19 06:28:15;;;;;;;15.48;5.18;;;3.40;99.90;;;;;;5158956;27;20065;-74
2022/03/19 06:30:41;;;;;;;16.63;5.17;;;3.40;99.90;;;;;;5158924;27;20095;-76
2022/03/19 06:33:07;;;;;;;21.67;4.78;;;3.40;99.90;;;;;;5158469;27;20047;-76
2022/03/19 06:38:18;;;;;;;19.88;5.38;;;3.50;99.90;;;;;;5159070;27;20051;-75
2022/03/19 06:40:44;;;;;;;18.13;6.25;;;3.60;99.90;;;;;;5158733;27;20129;-75
2022/03/19 06:43:09;;;;;;;21.58;5.45;;;3.60;99.90;;;;;;5158708;27;20367;-76
2022/03/19 06:45:37;;;;;;;15.85;5.22;;;3.70;99.90;;;;;;5158537;27;20078;-74
2022/03/19 06:48:03;;;;;;;18.52;4.57;;;3.70;99.90;;;;;;5158515;27;20095;-75
2022/03/19 06:50:28;;;;;;;18.77;5.38;;;3.80;99.90;;;;;;5158611;27;20470;-76
2022/03/19 06:52:54;;;;;;;22.90;7.28;;;3.90;99.90;;;;;;5158250;27;20039;-76
2022/03/19 06:55:19;;;;;;;15.35;4.90;;;3.90;99.90;;;;;;5158580;27;20047;-76
2022/03/19 06:57:45;;;;;;;15.73;4.72;;;4.00;99.90;;;;;;5158485;27;20466;-74
2022/03/19 07:00:11;;;;;;;15.55;5.63;;;4.10;99.90;;;;;;5139989;27;20066;-77
2022/03/19 07:02:50;;;;;;;13.13;5.45;;;4.10;99.90;;;;;;5158219;27;20051;-76
2022/03/19 07:05:26;;;;;;;13.20;5.18;;;4.20;99.90;;;;;;5158291;27;20047;-76
2022/03/19 07:07:53;;;;;;;14.05;5.82;;;4.30;99.90;;;;;;5158234;27;20482;-76
2022/03/19 07:10:19;;;;;;;16.90;4.75;;;4.30;99.90;;;;;;5158104;27;20138;-76
2022/03/19 07:12:46;;;;;;;15.23;4.93;;;4.40;99.90;;;;;;5157644;27;20150;-76
2022/03/19 07:15:17;;;;;;;16.95;4.65;;;4.50;99.90;;;;;;5139258;27;20500;-76
2022/03/19 07:17:43;;;;;;;13.82;4.93;;;4.60;99.90;;;;;;5158046;27;20039;-77
2022/03/19 07:20:10;;;;;;;25.43;5.17;;;4.70;99.90;;;;;;5157654;27;20405;-76
2022/03/19 07:22:58;;;;;;;16.50;4.88;;;4.80;99.90;;;;;;5157892;27;20280;-76
2022/03/19 07:25:25;;;;;;;14.52;4.18;;;5.00;99.90;;;;;;5157896;27;20050;-77
2022/03/19 07:27:53;;;;;;;16.45;4.30;;;5.10;99.90;;;;;;5157805;27;20045;-77
2022/03/19 07:30:19;;;;;;;17.80;5.55;;;5.20;99.90;;;;;;5156643;27;20045;-78
2022/03/19 07:32:46;;;;;;;16.80;4.53;;;5.40;99.90;;;;;;5157703;27;20134;-75
2022/03/19 07:35:15;;;;;;;12.70;3.90;;;5.50;99.90;;;;;;5157671;27;20046;-75
2022/03/19 07:37:41;;;;;;;13.43;4.10;;;5.50;99.90;;;;;;5157539;27;20087;-74
2022/03/19 07:40:13;;;;;;;10.15;4.28;;;5.60;99.90;;;;;;5157521;27;20554;-73
2022/03/19 07:42:38;;;;;;;18.42;4.32;;;5.70;99.90;;;;;;5157463;27;20091;-78
2022/03/19 07:45:05;;;;;;;17.23;4.25;;;5.80;99.90;;;;;;5157444;27;20042;-76
2022/03/19 07:47:32;;;;;;;13.43;3.80;;;5.90;99.90;;;;;;5157718;27;20042;-76
2022/03/19 07:49:58;;;;;;;14.65;3.92;;;6.00;99.90;;;;;;5157365;27;20394;-76
2022/03/19 07:52:24;;;;;;;15.73;3.63;;;6.10;99.90;;;;;;5156957;27;20050;-76
2022/03/19 07:54:54;;;;;;;13.25;4.13;;;6.20;99.90;;;;;;5157145;27;20035;-76
2022/03/19 07:57:19;;;;;;;12.15;3.55;;;6.30;99.90;;;;;;5156899;27;20494;-77
2022/03/19 07:59:45;;;;;;;10.98;3.47;;;6.40;99.90;;;;;;5157084;27;20053;-77
2022/03/19 08:02:10;;;;;;;18.50;5.13;;;6.50;99.90;;;;;;5157096;27;20038;-76
2022/03/19 08:04:36;;;;;;;14.70;3.95;;;6.60;99.90;;;;;;5157032;27;20505;-76
2022/03/19 08:07:02;;;;;;;11.48;3.67;;;6.60;99.90;;;;;;5156970;27;20546;-77
2022/03/19 08:09:27;;;;;;;10.80;3.60;;;6.70;99.90;;;;;;5157346;27;20043;-76
2022/03/19 08:11:53;;;;;;;14.40;3.53;;;6.90;99.90;;;;;;5157305;27;20065;-74
2022/03/19 08:14:19;;;;;;;14.45;3.50;;;6.90;99.90;;;;;;5156912;27;20043;-77
2022/03/19 08:16:46;;;;;;;16.23;3.67;;;7.00;99.90;;;;;;5156771;27;20130;-77
2022/03/19 08:19:13;;;;;;;11.52;3.30;;;7.10;99.90;;;;;;5156601;27;20505;-77
2022/03/19 08:21:39;;;;;;;;;;;7.20;99.90;;;;;;5156937;27;20142;-77
2022/03/19 08:24:06;;;;;;;9.90;3.13;;;7.30;99.90;;;;;;5156605;27;19969;-76
2022/03/19 08:26:32;;;;;;;10.77;3.47;;;7.40;99.90;;;;;;5156320;27;20054;-76
2022/03/19 08:28:58;;;;;;;11.00;2.97;;;7.50;99.90;;;;;;5156508;27;20054;-78
2022/03/19 08:31:24;;;;;;;14.07;3.28;;;7.60;99.90;;;;;;5156500;27;20047;-76
2022/03/19 08:33:50;;;;;;;11.68;3.13;;;7.70;99.90;;;;;;5138134;27;20122;-77
2022/03/19 08:36:15;;;;;;;13.32;3.30;;;7.80;99.90;;;;;;5156499;27;20467;-77
2022/03/19 08:41:27;;;;;;;15.02;3.35;;;7.90;99.90;;;;;;5156272;27;20110;-76
2022/03/19 08:43:52;;;;;;;13.48;3.38;;;8.00;99.90;;;;;;5156276;27;20038;-74
2022/03/19 08:46:19;;;;;;;14.82;3.05;;;8.10;99.90;;;;;;5156135;27;20042;-75
2022/03/19 08:48:45;;;;;;;13.02;2.95;;;8.10;99.90;;;;;;5155884;27;20117;-77
2022/03/19 08:53:55;;;;;;;8.88;3.25;;;8.30;99.90;;;;;;5155965;27;20042;-75
2022/03/19 08:56:20;;;;;;;14.15;2.88;;;8.40;99.90;;;;;;5156028;27;20439;-76
2022/03/19 08:58:46;;;;;;;13.95;3.60;;;8.50;99.90;;;;;;5155678;27;20045;-77
2022/03/19 09:01:12;;;;;;;9.27;2.60;;;8.60;99.90;;;;;;5156001;27;20130;-75
2022/03/19 09:03:37;;;;;;;11.85;2.70;;;8.60;99.90;;;;;;5155871;27;20038;-76
2022/03/19 09:06:03;;;;;;;12.20;3.08;;;8.80;99.90;;;;;;5155480;27;20360;-74
2022/03/19 09:08:29;;;;;;;13.20;2.80;;;8.90;99.90;;;;;;5155858;27;20053;-73
2022/03/19 09:10:57;;;;;;;12.57;2.55;;;9.00;99.90;;;;;;5155428;27;20055;-76
2022/03/19 09:13:23;;;;;;;10.23;2.53;;;9.00;99.90;;;;;;5155542;27;20079;-74
2022/03/19 09:15:49;;;;;;;10.50;2.40;;;9.00;99.90;;;;;;5155459;27;20043;-76
2022/03/19 09:18:16;;;;;;;8.23;2.65;;;9.10;99.90;;;;;;5155149;27;20176;-75
2022/03/19 09:20:41;;;;;;;8.10;2.20;;;9.20;99.90;;;;;;5155230;27;20051;-75
2022/03/19 09:23:08;;;;;;;7.35;2.13;;;9.30;99.90;;;;;;5155622;27;20045;-76
2022/03/19 09:25:34;;;;;;;8.32;2.30;;;9.30;99.90;;;;;;5155520;27;20125;-77
2022/03/19 09:27:59;;;;;;;8.32;2.40;;;9.30;99.90;;;;;;5154859;27;20125;-75
2022/03/19 09:30:25;;;;;;;12.02;2.30;;;9.30;99.90;;;;;;5153982;27;20054;-74
2022/03/19 09:32:51;;;;;;;7.20;1.90;;;9.40;99.90;;;;;;5155522;27;20082;-74
2022/03/19 09:35:16;;;;;;;7.82;2.25;;;9.40;99.90;;;;;;5155467;27;20397;-75
2022/03/19 09:37:42;;;;;;;6.75;2.15;;;9.50;99.90;;;;;;5155416;27;20049;-75
2022/03/19 09:40:08;;;;;;;6.95;2.25;;;9.60;99.90;;;;;;5155505;27;20049;-75
2022/03/19 09:42:45;;;;;;;7.70;2.35;;;9.70;99.90;;;;;;5155221;27;20082;-75
2022/03/19 09:45:11;;;;;;;12.50;2.53;;;9.80;99.90;;;;;;5155454;27;20091;-76
2022/03/19 09:47:36;;;;;;;9.52;2.10;;;9.90;99.90;;;;;;5155307;27;20082;-76
2022/03/19 09:50:02;;;;;;;8.27;2.25;;;10.00;99.90;;;;;;5155722;27;20042;-76
2022/03/19 09:52:29;;;;;;;8.88;2.25;;;10.10;99.90;;;;;;5156001;27;20094;-75
2022/03/19 09:54:59;;;;;;;10.15;2.35;;;10.20;99.90;;;;;;5151875;27;20039;-77
2022/03/19 09:57:24;;;;;;;12.15;2.85;;;10.30;99.90;;;;;;5153550;27;20112;-76
2022/03/19 09:59:50;;;;;;;7.53;2.10;;;10.30;99.90;;;;;;5158858;27;20068;-76
2022/03/19 10:02:16;;;;;;;9.00;2.00;;;10.40;99.90;;;;;;5159211;27;20081;-77
2022/03/19 10:04:42;;;;;;;11.23;2.42;;;10.40;99.90;;;;;;5140964;27;20038;-77
2022/03/19 10:09:54;;;;;;;9.55;2.28;;;10.50;99.90;;;;;;5158939;27;20133;-75
2022/03/19 10:12:23;;;;;;;6.82;2.10;;;10.60;99.90;;;;;;5158855;27;20042;-76
2022/03/19 10:14:53;;;;;;;8.23;2.05;;;10.70;99.90;;;;;;5158876;27;20462;-76
2022/03/19 10:17:32;;;;;;;11.93;2.55;;;10.90;99.90;;;;;;5159017;27;20098;-75
2022/03/19 10:20:09;;;;;;;10.90;2.50;;;11.00;99.90;;;;;;5158964;27;20054;-76
2022/03/19 10:22:39;;;;;;;8.73;2.08;;;11.10;99.90;;;;;;5158626;27;20463;-74
2022/03/19 10:25:10;;;;;;;7.05;1.95;;;11.10;99.90;;;;;;5158426;27;20413;-75
2022/03/19 10:27:38;;;;;;;7.90;2.25;;;11.10;99.90;;;;;;5158567;27;20046;-75
2022/03/19 10:30:05;;;;;;;9.63;2.30;;;11.20;99.90;;;;;;5158641;27;20098;-77
2022/03/19 10:32:30;;;;;;;7.50;2.00;;;11.30;99.90;;;;;;5158663;27;20123;-76
2022/03/19 10:34:56;;;;;;;5.57;1.92;;;11.40;99.90;;;;;;5158614;27;20499;-75
2022/03/19 10:37:38;;;;;;;7.03;2.50;;;11.40;99.90;;;;;;5140380;27;20048;-75
2022/03/19 10:40:09;;;;;;;8.63;2.38;;;11.40;99.90;;;;;;5158865;27;20046;-77
2022/03/19 10:42:36;;;;;;;5.78;2.13;;;11.40;99.90;;;;;;5158338;27;20043;-76
2022/03/19 10:45:02;;;;;;;7.63;2.05;;;11.40;99.80;;;;;;5158266;27;20039;-74
2022/03/19 10:47:27;;;;;;;6.38;2.17;;;11.50;99.90;;;;;;5158382;27;20087;-76
2022/03/19 10:50:00;;;;;;;7.00;2.13;;;11.60;99.90;;;;;;5158039;27;20046;-77
2022/03/19 10:52:27;;;;;;;7.55;2.13;;;11.70;99.00;;;;;;5145777;27;20045;-74
2022/03/19 10:54:54;;;;;;;6.60;2.00;;;11.80;97.60;;;;;;5137638;27;20050;-77
2022/03/19 10:57:20;;;;;;;7.43;1.80;;;11.90;98.10;;;;;;5137691;27;20099;-76
2022/03/19 10:59:45;;;;;;;8.00;2.00;;;12.00;97.20;;;;;;5137597;27;20043;-75
2022/03/19 11:02:15;;;;;;;4.47;1.95;;;12.10;97.00;;;;;;5137545;27;20051;-77
2022/03/19 11:04:42;;;;;;;5.72;1.40;;;12.20;97.10;;;;;;5137154;27;20089;-77
2022/03/19 11:07:09;;;;;;;;;;;12.20;95.00;;;;;;5137799;27;20043;-80
2022/03/19 11:09:38;;;;;;;5.23;1.53;;;12.30;95.90;;;;;;5137484;27;20278;-78
2022/03/19 11:12:07;;;;;;;4.35;1.33;;;12.30;95.10;;;;;;5137442;27;20042;-76
2022/03/19 11:14:36;;;;;;;5.20;1.50;;;12.40;94.40;;;;;;5137248;27;20443;-77
2022/03/19 11:17:24;;;;;;;7.43;1.90;;;12.40;94.00;;;;;;5137336;27;20126;-77
2022/03/19 11:19:55;;;;;;;5.57;1.70;;;12.50;95.70;;;;;;5137319;27;20121;-75
2022/03/19 11:22:21;;;;;;;5.00;1.60;;;12.50;94.60;;;;;;5137193;27;20497;-76
2022/03/19 11:25:12;;;;;;;4.90;1.80;;;12.60;95.40;;;;;;5137173;27;20039;-78
2022/03/19 11:27:41;;;;;;;7.30;1.60;;;12.60;93.10;;;;;;5136982;27;20050;-78
2022/03/19 11:30:18;;;;;;;5.10;1.70;;;12.60;94.20;;;;;;5137117;27;20051;-76
2022/03/19 11:33:17;;;;;;;3.97;1.52;;;12.70;94.70;;;;;;5137012;27;20039;-76
2022/03/19 11:36:02;;;;;;;5.53;1.52;;;12.60;93.10;;;;;;5136700;27;20491;-78
2022/03/19 11:38:29;;;;;;;6.47;1.80;;;12.70;93.50;;;;;;5118667;27;20043;-76
2022/03/19 11:40:56;;;;;;;4.25;1.90;;;12.90;93.30;;;;;;5136891;27;20047;-74
2022/03/19 11:43:25;;;;;;;4.75;1.80;;;13.00;92.90;;;;;;5137220;27;20039;-76
2022/03/19 11:45:53;;;;;;;8.77;1.55;;;13.10;92.80;;;;;;5136887;27;20134;-76
2022/03/19 11:48:51;;;;;;;5.80;1.40;;;13.10;93.50;;;;;;5136721;27;20122;-76
2022/03/19 11:51:25;;;;;;;4.03;1.80;;;13.10;92.50;;;;;;5137032;27;20046;-77
2022/03/19 11:53:55;;;;;;;5.53;1.85;;;13.20;92.90;;;;;;5135325;27;20050;-76
2022/03/19 11:56:23;;;;;;;6.70;1.88;;;13.10;91.90;;;;;;5136553;27;20126;-76
2022/03/19 11:58:49;;;;;;;6.15;1.77;;;13.10;91.80;;;;;;5136468;27;20458;-73
2022/03/19 12:01:17;;;;;;;4.85;1.83;;;13.10;91.80;;;;;;5136386;27;20099;-77
2022/03/19 12:04:04;;;;;;;5.22;1.75;;;13.00;91.20;;;;;;5136969;27;20512;-76
2022/03/19 12:06:32;;;;;;;5.83;1.87;;;13.20;91.90;;;;;;5136050;27;20126;-77
2022/03/19 12:08:57;;;;;;;5.45;1.90;;;13.30;92.10;;;;;;5136250;27;20054;-75
2022/03/19 12:11:23;;;;;;;9.35;1.98;;;13.40;91.40;;;;;;5136729;27;20055;-77
2022/03/19 12:13:50;;;;;;;4.20;1.58;;;13.50;92.50;;;;;;5135795;27;20047;-78
2022/03/19 12:16:41;;;;;;;7.40;1.67;;;13.60;91.70;;;;;;5135600;27;20055;-77
2022/03/19 12:19:08;;;;;;;3.25;1.33;;;13.60;91.80;;;;;;5136144;27;20047;-77
2022/03/19 12:21:36;;;;;;;4.43;1.73;;;13.60;90.50;;;;;;5135847;27;20054;-75
2022/03/19 12:24:13;;;;;;;3.55;1.60;;;13.60;91.50;;;;;;5117860;27;20055;-77
2022/03/19 12:26:43;;;;;;;4.57;2.03;;;13.60;92.50;;;;;;5136087;27;20493;-76
2022/03/19 12:29:11;;;;;;;6.38;1.63;;;13.80;91.40;;;;;;5135893;27;20420;-77
2022/03/19 12:31:44;;;;;;;4.88;1.92;;;13.60;90.30;;;;;;5136170;27;20069;-75
2022/03/19 12:34:30;;;;;;;2.58;1.27;;;13.60;90.00;;;;;;5135831;27;20046;-76
2022/03/19 12:37:01;;;;;;;3.45;1.10;;;13.70;86.10;;;;;;5135584;27;20497;-78
2022/03/19 12:39:27;;;;;;;3.42;1.20;;;13.70;84.60;;;;;;5135704;27;20046;-75
2022/03/19 12:41:53;;;;;;;2.65;1.20;;;13.70;82.60;;;;;;5117731;27;20176;-76
2022/03/19 12:44:24;;;;;;;7.57;1.30;;;13.70;82.10;;;;;;5135819;27;20459;-77
2022/03/19 12:46:56;;;;;;;3.58;1.20;;;13.70;81.30;;;;;;5135534;27;20051;-76
2022/03/19 12:49:22;;;;;;;6.10;1.38;;;13.70;81.30;;;;;;5135911;27;20050;-76
2022/03/19 12:51:49;;;;;;;3.08;1.30;;;13.70;80.00;;;;;;5135847;27;20043;-75
2022/03/19 12:54:31;;;;;;;3.58;1.30;;;13.70;80.60;;;;;;5135262;27;20096;-76
2022/03/19 12:56:58;;;;;;;5.25;1.40;;;13.90;80.60;;;;;;5135311;27;20505;-77
2022/03/19 12:59:28;;;;;;;8.95;1.85;;;13.90;81.70;;;;;;5135351;27;20100;-77
2022/03/19 13:01:55;;;;;;;4.30;1.45;;;13.80;80.30;;;;;;5135239;27;20126;-77
2022/03/19 13:04:26;;;;;;;4.43;1.67;;;13.70;80.00;;;;;;5135306;27;20438;-76
2022/03/19 13:06:52;;;;;;;4.93;1.42;;;13.80;79.30;;;;;;5135268;27;20044;-77
2022/03/19 13:09:28;;;;;;;5.40;1.48;;;13.70;79.00;;;;;;5135248;27;20035;-76